sensor_id;sensor_type;location;lat;lon;timestamp;P1;durP1;ratioP1;P2;durP2;ratioP2
1378;SDS011;683;48.738;9.226;2023-01-25T00:00:51;40.73;;;24.83;;
1378;SDS011;683;48.738;9.226;2023-01-25T00:03:18;42.83;;;26.27;;
1378;SDS011;683;48.738;9.226;2023-01-25T00:06:04;40.37;;;25.60;;
1378;SDS011;683;48.738;9.226;2023-01-25T00:08:47;43.57;;;24.53;;
1378;SDS011;683;48.738;9.226;2023-01-25T00:11:16;36.27;;;23.87;;
1378;SDS011;683;48.738;9.226;2023-01-25T00:13:44;43.10;;;25.93;;
1378;SDS011;683;48.738;9.226;2023-01-25T00:16:12;43.60;;;27.30;;
1378;SDS011;683;48.738;9.226;2023-01-25T00:18:39;35.83;;;25.20;;
1378;SDS011;683;48.738;9.226;2023-01-25T00:21:13;42.60;;;24.60;;
1378;SDS011;683;48.738;9.226;2023-01-25T00:23:43;41.93;;;25.17;;
1378;SDS011;683;48.738;9.226;2023-01-25T00:26:12;56.30;;;25.93;;
1378;SDS011;683;48.738;9.226;2023-01-25T00:28:47;43.77;;;25.00;;
1378;SDS011;683;48.738;9.226;2023-01-25T00:31:16;43.33;;;25.87;;
1378;SDS011;683;48.738;9.226;2023-01-25T00:33:54;36.03;;;23.13;;
1378;SDS011;683;48.738;9.226;2023-01-25T00:36:27;40.00;;;23.60;;
1378;SDS011;683;48.738;9.226;2023-01-25T00:38:59;41.10;;;24.13;;
1378;SDS011;683;48.738;9.226;2023-01-25T00:41:27;33.80;;;22.10;;
1378;SDS011;683;48.738;9.226;2023-01-25T00:44:43;41.97;;;26.57;;
1378;SDS011;683;48.738;9.226;2023-01-25T00:47:11;35.73;;;23.10;;
1378;SDS011;683;48.738;9.226;2023-01-25T00:49:43;40.87;;;25.50;;
1378;SDS011;683;48.738;9.226;2023-01-25T00:52:14;40.50;;;23.60;;
1378;SDS011;683;48.738;9.226;2023-01-25T00:54:41;35.17;;;23.90;;
1378;SDS011;683;48.738;9.226;2023-01-25T00:57:08;50.10;;;27.50;;
1378;SDS011;683;48.738;9.226;2023-01-25T00:59:36;33.20;;;24.20;;
1378;SDS011;683;48.738;9.226;2023-01-25T01:02:07;43.20;;;25.33;;
1378;SDS011;683;48.738;9.226;2023-01-25T01:04:34;41.67;;;26.53;;
1378;SDS011;683;48.738;9.226;2023-01-25T01:07:02;41.00;;;26.40;;
1378;SDS011;683;48.738;9.226;2023-01-25T01:09:29;43.70;;;25.53;;
1378;SDS011;683;48.738;9.226;2023-01-25T01:11:57;40.20;;;24.87;;
1378;SDS011;683;48.738;9.226;2023-01-25T01:14:25;41.80;;;24.90;;
1378;SDS011;683;48.738;9.226;2023-01-25T01:16:52;36.90;;;24.70;;
1378;SDS011;683;48.738;9.226;2023-01-25T01:19:21;43.73;;;26.83;;
1378;SDS011;683;48.738;9.226;2023-01-25T01:21:48;37.93;;;23.83;;
1378;SDS011;683;48.738;9.226;2023-01-25T01:24:16;45.13;;;25.70;;
1378;SDS011;683;48.738;9.226;2023-01-25T01:26:44;38.20;;;24.97;;
1378;SDS011;683;48.738;9.226;2023-01-25T01:29:12;56.67;;;28.77;;
1378;SDS011;683;48.738;9.226;2023-01-25T01:31:39;45.53;;;25.80;;
1378;SDS011;683;48.738;9.226;2023-01-25T01:34:12;37.13;;;24.20;;
1378;SDS011;683;48.738;9.226;2023-01-25T01:36:41;35.90;;;25.40;;
1378;SDS011;683;48.738;9.226;2023-01-25T01:39:08;43.20;;;26.03;;
1378;SDS011;683;48.738;9.226;2023-01-25T01:41:36;40.30;;;23.37;;
1378;SDS011;683;48.738;9.226;2023-01-25T01:44:04;36.40;;;23.87;;
1378;SDS011;683;48.738;9.226;2023-01-25T01:46:33;42.80;;;26.77;;
1378;SDS011;683;48.738;9.226;2023-01-25T01:49:05;42.47;;;24.93;;
1378;SDS011;683;48.738;9.226;2023-01-25T01:51:40;38.53;;;24.10;;
1378;SDS011;683;48.738;9.226;2023-01-25T01:54:19;41.97;;;27.13;;
1378;SDS011;683;48.738;9.226;2023-01-25T01:56:53;36.60;;;24.30;;
1378;SDS011;683;48.738;9.226;2023-01-25T01:59:25;37.67;;;24.03;;
1378;SDS011;683;48.738;9.226;2023-01-25T02:01:56;43.27;;;25.43;;
1378;SDS011;683;48.738;9.226;2023-01-25T02:04:23;35.63;;;23.20;;
1378;SDS011;683;48.738;9.226;2023-01-25T02:06:56;43.97;;;24.40;;
1378;SDS011;683;48.738;9.226;2023-01-25T02:09:30;36.40;;;23.43;;
1378;SDS011;683;48.738;9.226;2023-01-25T02:11:59;40.37;;;23.10;;
1378;SDS011;683;48.738;9.226;2023-01-25T02:14:30;40.37;;;25.37;;
1378;SDS011;683;48.738;9.226;2023-01-25T02:16:59;33.63;;;22.90;;
1378;SDS011;683;48.738;9.226;2023-01-25T02:19:30;38.37;;;23.57;;
1378;SDS011;683;48.738;9.226;2023-01-25T02:22:07;32.80;;;22.00;;
1378;SDS011;683;48.738;9.226;2023-01-25T02:24:38;35.87;;;21.57;;
1378;SDS011;683;48.738;9.226;2023-01-25T02:27:13;37.37;;;22.77;;
1378;SDS011;683;48.738;9.226;2023-01-25T02:29:40;30.87;;;21.80;;
1378;SDS011;683;48.738;9.226;2023-01-25T02:32:11;36.63;;;25.33;;
1378;SDS011;683;48.738;9.226;2023-01-25T02:34:42;31.00;;;21.13;;
1378;SDS011;683;48.738;9.226;2023-01-25T02:37:11;30.80;;;21.07;;
1378;SDS011;683;48.738;9.226;2023-01-25T02:39:41;32.17;;;22.03;;
1378;SDS011;683;48.738;9.226;2023-01-25T02:42:08;31.17;;;21.80;;
1378;SDS011;683;48.738;9.226;2023-01-25T02:44:38;35.50;;;22.30;;
1378;SDS011;683;48.738;9.226;2023-01-25T02:47:10;31.40;;;20.90;;
1378;SDS011;683;48.738;9.226;2023-01-25T02:49:38;41.10;;;22.87;;
1378;SDS011;683;48.738;9.226;2023-01-25T02:52:08;32.30;;;19.67;;
1378;SDS011;683;48.738;9.226;2023-01-25T02:54:39;31.27;;;19.90;;
1378;SDS011;683;48.738;9.226;2023-01-25T02:57:07;28.33;;;19.13;;
1378;SDS011;683;48.738;9.226;2023-01-25T02:59:42;30.97;;;21.33;;
1378;SDS011;683;48.738;9.226;2023-01-25T03:02:12;37.63;;;21.53;;
1378;SDS011;683;48.738;9.226;2023-01-25T03:04:40;38.33;;;21.87;;
1378;SDS011;683;48.738;9.226;2023-01-25T03:07:07;30.80;;;19.30;;
1378;SDS011;683;48.738;9.226;2023-01-25T03:09:35;36.67;;;20.77;;
1378;SDS011;683;48.738;9.226;2023-01-25T03:12:02;32.63;;;20.57;;
1378;SDS011;683;48.738;9.226;2023-01-25T03:14:33;31.50;;;20.40;;
1378;SDS011;683;48.738;9.226;2023-01-25T03:17:01;32.57;;;20.03;;
1378;SDS011;683;48.738;9.226;2023-01-25T03:19:29;31.70;;;20.43;;
1378;SDS011;683;48.738;9.226;2023-01-25T03:21:57;34.93;;;21.67;;
1378;SDS011;683;48.738;9.226;2023-01-25T03:24:26;34.73;;;20.00;;
1378;SDS011;683;48.738;9.226;2023-01-25T03:26:53;30.83;;;20.63;;
1378;SDS011;683;48.738;9.226;2023-01-25T03:30:14;28.90;;;18.10;;
1378;SDS011;683;48.738;9.226;2023-01-25T03:32:43;34.57;;;21.50;;
1378;SDS011;683;48.738;9.226;2023-01-25T03:35:14;30.87;;;19.67;;
1378;SDS011;683;48.738;9.226;2023-01-25T03:37:42;32.23;;;18.93;;
1378;SDS011;683;48.738;9.226;2023-01-25T03:40:10;32.83;;;20.03;;
1378;SDS011;683;48.738;9.226;2023-01-25T03:42:43;31.40;;;19.33;;
1378;SDS011;683;48.738;9.226;2023-01-25T03:45:15;34.07;;;20.57;;
1378;SDS011;683;48.738;9.226;2023-01-25T03:47:44;27.77;;;19.70;;
1378;SDS011;683;48.738;9.226;2023-01-25T03:50:13;27.80;;;18.83;;
1378;SDS011;683;48.738;9.226;2023-01-25T03:52:45;28.50;;;18.50;;
1378;SDS011;683;48.738;9.226;2023-01-25T03:55:43;27.23;;;17.77;;
1378;SDS011;683;48.738;9.226;2023-01-25T03:58:11;30.53;;;20.47;;
1378;SDS011;683;48.738;9.226;2023-01-25T04:00:39;26.00;;;18.90;;
1378;SDS011;683;48.738;9.226;2023-01-25T04:03:07;33.53;;;17.97;;
1378;SDS011;683;48.738;9.226;2023-01-25T04:05:35;27.47;;;18.20;;
1378;SDS011;683;48.738;9.226;2023-01-25T04:08:02;29.13;;;18.43;;
1378;SDS011;683;48.738;9.226;2023-01-25T04:10:36;25.07;;;16.50;;
1378;SDS011;683;48.738;9.226;2023-01-25T04:13:04;30.70;;;17.23;;
1378;SDS011;683;48.738;9.226;2023-01-25T04:15:35;24.53;;;16.07;;
1378;SDS011;683;48.738;9.226;2023-01-25T04:18:11;22.30;;;15.33;;
1378;SDS011;683;48.738;9.226;2023-01-25T04:20:39;24.53;;;17.20;;
1378;SDS011;683;48.738;9.226;2023-01-25T04:23:07;26.93;;;17.63;;
1378;SDS011;683;48.738;9.226;2023-01-25T04:25:36;25.90;;;15.43;;
1378;SDS011;683;48.738;9.226;2023-01-25T04:28:10;22.33;;;15.13;;
1378;SDS011;683;48.738;9.226;2023-01-25T04:30:38;28.40;;;15.27;;
1378;SDS011;683;48.738;9.226;2023-01-25T04:33:08;22.67;;;15.20;;
1378;SDS011;683;48.738;9.226;2023-01-25T04:35:37;20.53;;;15.30;;
1378;SDS011;683;48.738;9.226;2023-01-25T04:38:06;20.93;;;15.27;;
1378;SDS011;683;48.738;9.226;2023-01-25T04:40:37;27.40;;;16.70;;
1378;SDS011;683;48.738;9.226;2023-01-25T04:43:05;22.27;;;15.63;;
1378;SDS011;683;48.738;9.226;2023-01-25T04:45:33;20.00;;;13.13;;
1378;SDS011;683;48.738;9.226;2023-01-25T04:48:05;25.70;;;16.63;;
1378;SDS011;683;48.738;9.226;2023-01-25T04:50:35;20.97;;;14.73;;
1378;SDS011;683;48.738;9.226;2023-01-25T04:53:06;20.17;;;13.13;;
1378;SDS011;683;48.738;9.226;2023-01-25T04:55:38;22.97;;;15.60;;
1378;SDS011;683;48.738;9.226;2023-01-25T04:58:07;23.37;;;15.40;;
1378;SDS011;683;48.738;9.226;2023-01-25T05:00:34;20.20;;;15.20;;
1378;SDS011;683;48.738;9.226;2023-01-25T05:03:02;21.80;;;14.40;;
1378;SDS011;683;48.738;9.226;2023-01-25T05:05:30;24.43;;;15.90;;
1378;SDS011;683;48.738;9.226;2023-01-25T05:08:01;22.80;;;14.90;;
1378;SDS011;683;48.738;9.226;2023-01-25T05:10:30;26.13;;;16.60;;
1378;SDS011;683;48.738;9.226;2023-01-25T05:13:31;25.07;;;16.13;;
1378;SDS011;683;48.738;9.226;2023-01-25T05:16:30;23.07;;;14.70;;
1378;SDS011;683;48.738;9.226;2023-01-25T05:19:01;22.83;;;14.63;;
1378;SDS011;683;48.738;9.226;2023-01-25T05:21:58;24.20;;;15.00;;
1378;SDS011;683;48.738;9.226;2023-01-25T05:24:49;20.10;;;14.23;;
1378;SDS011;683;48.738;9.226;2023-01-25T05:27:23;20.87;;;14.33;;
1378;SDS011;683;48.738;9.226;2023-01-25T05:29:53;21.60;;;13.30;;
1378;SDS011;683;48.738;9.226;2023-01-25T05:32:41;19.57;;;12.43;;
1378;SDS011;683;48.738;9.226;2023-01-25T05:35:09;18.20;;;13.57;;
1378;SDS011;683;48.738;9.226;2023-01-25T05:37:37;23.03;;;14.20;;
1378;SDS011;683;48.738;9.226;2023-01-25T05:40:10;23.00;;;14.57;;
1378;SDS011;683;48.738;9.226;2023-01-25T05:42:38;24.10;;;15.60;;
1378;SDS011;683;48.738;9.226;2023-01-25T05:45:13;20.93;;;15.03;;
1378;SDS011;683;48.738;9.226;2023-01-25T05:47:43;25.57;;;16.73;;
1378;SDS011;683;48.738;9.226;2023-01-25T05:50:11;21.10;;;14.60;;
1378;SDS011;683;48.738;9.226;2023-01-25T05:52:54;24.60;;;14.87;;
1378;SDS011;683;48.738;9.226;2023-01-25T05:55:23;19.73;;;13.97;;
1378;SDS011;683;48.738;9.226;2023-01-25T05:57:55;23.93;;;14.47;;
1378;SDS011;683;48.738;9.226;2023-01-25T06:00:23;20.20;;;14.00;;
1378;SDS011;683;48.738;9.226;2023-01-25T06:02:50;19.90;;;13.60;;
1378;SDS011;683;48.738;9.226;2023-01-25T06:05:22;22.33;;;14.17;;
1378;SDS011;683;48.738;9.226;2023-01-25T06:07:49;21.77;;;15.13;;
1378;SDS011;683;48.738;9.226;2023-01-25T06:10:20;19.80;;;13.63;;
1378;SDS011;683;48.738;9.226;2023-01-25T06:12:50;23.60;;;14.33;;
1378;SDS011;683;48.738;9.226;2023-01-25T06:15:24;19.07;;;13.80;;
1378;SDS011;683;48.738;9.226;2023-01-25T06:18:03;24.70;;;14.40;;
1378;SDS011;683;48.738;9.226;2023-01-25T06:20:50;20.33;;;14.60;;
1378;SDS011;683;48.738;9.226;2023-01-25T06:23:23;25.60;;;14.20;;
1378;SDS011;683;48.738;9.226;2023-01-25T06:25:51;21.70;;;15.97;;
1378;SDS011;683;48.738;9.226;2023-01-25T06:28:21;21.93;;;14.13;;
1378;SDS011;683;48.738;9.226;2023-01-25T06:30:48;22.40;;;14.57;;
1378;SDS011;683;48.738;9.226;2023-01-25T06:33:15;25.30;;;15.50;;
1378;SDS011;683;48.738;9.226;2023-01-25T06:35:51;20.50;;;14.00;;
1378;SDS011;683;48.738;9.226;2023-01-25T06:38:19;22.40;;;14.07;;
1378;SDS011;683;48.738;9.226;2023-01-25T06:40:46;19.53;;;13.80;;
1378;SDS011;683;48.738;9.226;2023-01-25T06:43:16;24.37;;;15.43;;
1378;SDS011;683;48.738;9.226;2023-01-25T06:45:44;23.03;;;14.53;;
1378;SDS011;683;48.738;9.226;2023-01-25T06:48:14;24.43;;;16.40;;
1378;SDS011;683;48.738;9.226;2023-01-25T06:50:41;23.63;;;15.03;;
1378;SDS011;683;48.738;9.226;2023-01-25T06:53:09;21.37;;;15.50;;
1378;SDS011;683;48.738;9.226;2023-01-25T06:55:39;22.67;;;15.27;;
1378;SDS011;683;48.738;9.226;2023-01-25T06:58:06;26.53;;;16.07;;
1378;SDS011;683;48.738;9.226;2023-01-25T07:00:33;24.80;;;16.10;;
1378;SDS011;683;48.738;9.226;2023-01-25T07:03:02;22.90;;;14.90;;
1378;SDS011;683;48.738;9.226;2023-01-25T07:05:31;22.17;;;15.40;;
1378;SDS011;683;48.738;9.226;2023-01-25T07:07:59;24.20;;;15.47;;
1378;SDS011;683;48.738;9.226;2023-01-25T07:10:26;20.27;;;14.00;;
1378;SDS011;683;48.738;9.226;2023-01-25T07:16:20;20.63;;;14.07;;
1378;SDS011;683;48.738;9.226;2023-01-25T07:18:49;20.60;;;14.00;;
1378;SDS011;683;48.738;9.226;2023-01-25T07:21:17;19.20;;;13.07;;
1378;SDS011;683;48.738;9.226;2023-01-25T07:23:49;22.10;;;12.50;;
1378;SDS011;683;48.738;9.226;2023-01-25T07:26:25;18.53;;;13.77;;
1378;SDS011;683;48.738;9.226;2023-01-25T07:31:47;20.40;;;12.73;;
1378;SDS011;683;48.738;9.226;2023-01-25T07:34:16;20.40;;;13.50;;
1378;SDS011;683;48.738;9.226;2023-01-25T07:36:43;22.50;;;15.10;;
1378;SDS011;683;48.738;9.226;2023-01-25T07:39:11;22.23;;;14.00;;
1378;SDS011;683;48.738;9.226;2023-01-25T07:41:39;20.00;;;13.70;;
1378;SDS011;683;48.738;9.226;2023-01-25T07:44:12;22.57;;;14.80;;
1378;SDS011;683;48.738;9.226;2023-01-25T07:46:45;20.67;;;13.87;;
1378;SDS011;683;48.738;9.226;2023-01-25T07:49:13;19.80;;;13.27;;
1378;SDS011;683;48.738;9.226;2023-01-25T07:51:41;23.17;;;13.90;;
1378;SDS011;683;48.738;9.226;2023-01-25T07:54:09;20.27;;;13.87;;
1378;SDS011;683;48.738;9.226;2023-01-25T07:56:39;21.83;;;15.40;;
1378;SDS011;683;48.738;9.226;2023-01-25T07:59:06;20.47;;;14.33;;
1378;SDS011;683;48.738;9.226;2023-01-25T08:01:38;18.30;;;13.63;;
1378;SDS011;683;48.738;9.226;2023-01-25T08:04:06;20.67;;;14.30;;
1378;SDS011;683;48.738;9.226;2023-01-25T08:06:35;21.47;;;15.00;;
1378;SDS011;683;48.738;9.226;2023-01-25T08:09:06;21.80;;;14.07;;
1378;SDS011;683;48.738;9.226;2023-01-25T08:11:36;22.40;;;14.60;;
1378;SDS011;683;48.738;9.226;2023-01-25T08:14:04;21.43;;;13.30;;
1378;SDS011;683;48.738;9.226;2023-01-25T08:16:35;23.37;;;15.07;;
1378;SDS011;683;48.738;9.226;2023-01-25T08:19:03;20.13;;;14.17;;
1378;SDS011;683;48.738;9.226;2023-01-25T08:21:34;20.67;;;13.77;;
1378;SDS011;683;48.738;9.226;2023-01-25T08:24:54;18.47;;;13.97;;
1378;SDS011;683;48.738;9.226;2023-01-25T08:27:22;19.73;;;14.67;;
1378;SDS011;683;48.738;9.226;2023-01-25T08:29:49;19.90;;;15.33;;
1378;SDS011;683;48.738;9.226;2023-01-25T08:32:19;18.80;;;13.00;;
1378;SDS011;683;48.738;9.226;2023-01-25T08:34:49;20.40;;;13.57;;
1378;SDS011;683;48.738;9.226;2023-01-25T08:37:16;23.60;;;14.67;;
1378;SDS011;683;48.738;9.226;2023-01-25T08:39:46;19.23;;;13.40;;
1378;SDS011;683;48.738;9.226;2023-01-25T08:42:16;24.10;;;15.17;;
1378;SDS011;683;48.738;9.226;2023-01-25T08:44:45;17.27;;;13.10;;
1378;SDS011;683;48.738;9.226;2023-01-25T08:47:15;20.47;;;15.20;;
1378;SDS011;683;48.738;9.226;2023-01-25T08:49:42;20.37;;;13.80;;
1378;SDS011;683;48.738;9.226;2023-01-25T08:52:12;24.53;;;16.70;;
1378;SDS011;683;48.738;9.226;2023-01-25T08:54:40;20.97;;;14.70;;
1378;SDS011;683;48.738;9.226;2023-01-25T08:57:08;23.10;;;16.27;;
1378;SDS011;683;48.738;9.226;2023-01-25T08:59:38;21.47;;;14.50;;
1378;SDS011;683;48.738;9.226;2023-01-25T09:02:06;19.57;;;14.43;;
1378;SDS011;683;48.738;9.226;2023-01-25T09:04:35;22.20;;;14.47;;
1378;SDS011;683;48.738;9.226;2023-01-25T09:07:03;20.97;;;14.10;;
1378;SDS011;683;48.738;9.226;2023-01-25T09:09:31;20.07;;;13.40;;
1378;SDS011;683;48.738;9.226;2023-01-25T09:12:01;22.77;;;15.87;;
1378;SDS011;683;48.738;9.226;2023-01-25T09:14:30;19.70;;;15.17;;
1378;SDS011;683;48.738;9.226;2023-01-25T09:16:58;21.03;;;13.93;;
1378;SDS011;683;48.738;9.226;2023-01-25T09:19:26;22.40;;;15.37;;
1378;SDS011;683;48.738;9.226;2023-01-25T09:21:53;24.77;;;15.10;;
1378;SDS011;683;48.738;9.226;2023-01-25T09:24:20;23.60;;;12.77;;
1378;SDS011;683;48.738;9.226;2023-01-25T09:26:47;22.30;;;14.20;;
1378;SDS011;683;48.738;9.226;2023-01-25T09:29:15;18.90;;;15.47;;
1378;SDS011;683;48.738;9.226;2023-01-25T09:31:42;27.30;;;16.07;;
1378;SDS011;683;48.738;9.226;2023-01-25T09:34:22;24.40;;;14.50;;
1378;SDS011;683;48.738;9.226;2023-01-25T09:36:59;21.50;;;15.37;;
1378;SDS011;683;48.738;9.226;2023-01-25T09:39:27;19.20;;;13.57;;
1378;SDS011;683;48.738;9.226;2023-01-25T09:45:18;18.60;;;13.47;;
1378;SDS011;683;48.738;9.226;2023-01-25T09:47:52;21.37;;;15.77;;
1378;SDS011;683;48.738;9.226;2023-01-25T09:50:30;22.23;;;16.57;;
1378;SDS011;683;48.738;9.226;2023-01-25T09:55:51;27.57;;;15.47;;
1378;SDS011;683;48.738;9.226;2023-01-25T09:58:21;22.07;;;15.30;;
1378;SDS011;683;48.738;9.226;2023-01-25T10:00:54;17.87;;;14.47;;
1378;SDS011;683;48.738;9.226;2023-01-25T10:03:37;18.00;;;13.20;;
1378;SDS011;683;48.738;9.226;2023-01-25T10:06:11;23.07;;;15.47;;
1378;SDS011;683;48.738;9.226;2023-01-25T10:08:43;21.43;;;15.93;;
1378;SDS011;683;48.738;9.226;2023-01-25T10:11:28;17.83;;;13.63;;
1378;SDS011;683;48.738;9.226;2023-01-25T10:13:57;21.90;;;15.53;;
1378;SDS011;683;48.738;9.226;2023-01-25T10:16:28;23.73;;;13.80;;
1378;SDS011;683;48.738;9.226;2023-01-25T10:21:58;22.43;;;15.83;;
1378;SDS011;683;48.738;9.226;2023-01-25T10:24:37;22.63;;;15.40;;
1378;SDS011;683;48.738;9.226;2023-01-25T10:27:34;17.17;;;13.40;;
1378;SDS011;683;48.738;9.226;2023-01-25T10:30:16;21.37;;;14.40;;
1378;SDS011;683;48.738;9.226;2023-01-25T10:32:52;17.63;;;13.27;;
1378;SDS011;683;48.738;9.226;2023-01-25T10:35:25;19.20;;;13.57;;
1378;SDS011;683;48.738;9.226;2023-01-25T10:37:58;20.67;;;14.70;;
1378;SDS011;683;48.738;9.226;2023-01-25T10:40:35;18.87;;;13.17;;
1378;SDS011;683;48.738;9.226;2023-01-25T10:43:12;19.60;;;12.70;;
1378;SDS011;683;48.738;9.226;2023-01-25T10:45:42;23.93;;;14.37;;
1378;SDS011;683;48.738;9.226;2023-01-25T10:48:11;17.40;;;12.80;;
1378;SDS011;683;48.738;9.226;2023-01-25T10:50:44;18.90;;;13.63;;
1378;SDS011;683;48.738;9.226;2023-01-25T10:59:04;18.90;;;14.30;;
1378;SDS011;683;48.738;9.226;2023-01-25T11:01:34;17.10;;;12.90;;
1378;SDS011;683;48.738;9.226;2023-01-25T11:04:02;16.77;;;14.07;;
1378;SDS011;683;48.738;9.226;2023-01-25T11:07:03;19.10;;;13.30;;
1378;SDS011;683;48.738;9.226;2023-01-25T11:09:34;20.67;;;15.10;;
1378;SDS011;683;48.738;9.226;2023-01-25T11:12:04;20.27;;;14.03;;
1378;SDS011;683;48.738;9.226;2023-01-25T11:14:42;16.37;;;13.53;;
1378;SDS011;683;48.738;9.226;2023-01-25T11:17:20;18.70;;;13.43;;
1378;SDS011;683;48.738;9.226;2023-01-25T11:20:03;17.70;;;13.50;;
1378;SDS011;683;48.738;9.226;2023-01-25T11:22:47;19.03;;;14.60;;
1378;SDS011;683;48.738;9.226;2023-01-25T11:25:25;23.73;;;15.47;;
1378;SDS011;683;48.738;9.226;2023-01-25T11:28:08;20.50;;;14.33;;
1378;SDS011;683;48.738;9.226;2023-01-25T11:30:37;21.50;;;14.97;;
1378;SDS011;683;48.738;9.226;2023-01-25T11:33:08;19.00;;;13.87;;
1378;SDS011;683;48.738;9.226;2023-01-25T11:35:40;19.93;;;14.30;;
1378;SDS011;683;48.738;9.226;2023-01-25T11:38:20;21.37;;;15.03;;
1378;SDS011;683;48.738;9.226;2023-01-25T11:40:51;19.90;;;15.07;;
1378;SDS011;683;48.738;9.226;2023-01-25T11:43:26;21.80;;;14.43;;
1378;SDS011;683;48.738;9.226;2023-01-25T11:46:14;25.07;;;16.10;;
1378;SDS011;683;48.738;9.226;2023-01-25T11:48:58;20.43;;;14.83;;
1378;SDS011;683;48.738;9.226;2023-01-25T11:51:45;20.13;;;13.97;;
1378;SDS011;683;48.738;9.226;2023-01-25T11:54:28;20.37;;;14.40;;
1378;SDS011;683;48.738;9.226;2023-01-25T11:57:07;19.57;;;14.53;;
1378;SDS011;683;48.738;9.226;2023-01-25T11:59:56;17.90;;;13.73;;
1378;SDS011;683;48.738;9.226;2023-01-25T12:02:46;21.37;;;15.80;;
1378;SDS011;683;48.738;9.226;2023-01-25T12:05:37;19.83;;;15.37;;
1378;SDS011;683;48.738;9.226;2023-01-25T12:08:43;21.70;;;15.40;;
1378;SDS011;683;48.738;9.226;2023-01-25T12:12:03;24.00;;;16.67;;
1378;SDS011;683;48.738;9.226;2023-01-25T12:15:00;22.73;;;15.23;;
1378;SDS011;683;48.738;9.226;2023-01-25T12:17:44;25.20;;;14.80;;
1378;SDS011;683;48.738;9.226;2023-01-25T12:21:05;24.17;;;15.30;;
1378;SDS011;683;48.738;9.226;2023-01-25T12:23:47;20.33;;;14.60;;
1378;SDS011;683;48.738;9.226;2023-01-25T12:26:36;18.63;;;14.33;;
1378;SDS011;683;48.738;9.226;2023-01-25T12:29:17;19.87;;;14.80;;
1378;SDS011;683;48.738;9.226;2023-01-25T12:31:52;23.87;;;15.67;;
1378;SDS011;683;48.738;9.226;2023-01-25T12:34:25;22.60;;;15.50;;
1378;SDS011;683;48.738;9.226;2023-01-25T12:37:03;25.60;;;16.13;;
1378;SDS011;683;48.738;9.226;2023-01-25T12:39:36;23.10;;;16.83;;
1378;SDS011;683;48.738;9.226;2023-01-25T12:42:11;22.93;;;15.53;;
1378;SDS011;683;48.738;9.226;2023-01-25T12:44:46;23.00;;;16.00;;
1378;SDS011;683;48.738;9.226;2023-01-25T12:47:22;23.67;;;16.70;;
1378;SDS011;683;48.738;9.226;2023-01-25T12:49:58;19.80;;;15.00;;
1378;SDS011;683;48.738;9.226;2023-01-25T12:52:29;24.97;;;15.70;;
1378;SDS011;683;48.738;9.226;2023-01-25T12:54:59;24.23;;;17.37;;
1378;SDS011;683;48.738;9.226;2023-01-25T12:57:31;20.33;;;15.20;;
1378;SDS011;683;48.738;9.226;2023-01-25T13:00:05;24.20;;;15.60;;
1378;SDS011;683;48.738;9.226;2023-01-25T13:02:51;21.87;;;16.03;;
1378;SDS011;683;48.738;9.226;2023-01-25T13:05:43;19.80;;;14.17;;
1378;SDS011;683;48.738;9.226;2023-01-25T13:08:20;19.47;;;14.83;;
1378;SDS011;683;48.738;9.226;2023-01-25T13:10:58;18.00;;;13.57;;
1378;SDS011;683;48.738;9.226;2023-01-25T13:13:37;22.90;;;17.20;;
1378;SDS011;683;48.738;9.226;2023-01-25T13:16:23;30.90;;;18.83;;
1378;SDS011;683;48.738;9.226;2023-01-25T13:22:12;29.00;;;17.67;;
1378;SDS011;683;48.738;9.226;2023-01-25T13:25:06;27.57;;;18.93;;
1378;SDS011;683;48.738;9.226;2023-01-25T13:27:44;23.00;;;17.03;;
1378;SDS011;683;48.738;9.226;2023-01-25T13:30:28;21.67;;;15.93;;
1378;SDS011;683;48.738;9.226;2023-01-25T13:32:58;23.37;;;17.50;;
1378;SDS011;683;48.738;9.226;2023-01-25T13:35:33;21.10;;;15.17;;
1378;SDS011;683;48.738;9.226;2023-01-25T13:38:03;22.97;;;16.00;;
1378;SDS011;683;48.738;9.226;2023-01-25T13:41:12;24.10;;;16.00;;
1378;SDS011;683;48.738;9.226;2023-01-25T13:43:43;21.80;;;15.23;;
1378;SDS011;683;48.738;9.226;2023-01-25T13:46:14;23.50;;;16.07;;
1378;SDS011;683;48.738;9.226;2023-01-25T13:51:37;20.77;;;15.70;;
1378;SDS011;683;48.738;9.226;2023-01-25T13:54:13;24.83;;;17.00;;
1378;SDS011;683;48.738;9.226;2023-01-25T13:56:41;24.70;;;16.53;;
1378;SDS011;683;48.738;9.226;2023-01-25T13:59:22;20.70;;;15.43;;
1378;SDS011;683;48.738;9.226;2023-01-25T14:01:50;23.00;;;15.70;;
1378;SDS011;683;48.738;9.226;2023-01-25T14:04:17;26.93;;;17.77;;
1378;SDS011;683;48.738;9.226;2023-01-25T14:06:46;23.40;;;16.83;;
1378;SDS011;683;48.738;9.226;2023-01-25T14:09:24;23.73;;;17.20;;
1378;SDS011;683;48.738;9.226;2023-01-25T14:11:54;26.93;;;17.87;;
1378;SDS011;683;48.738;9.226;2023-01-25T14:14:29;30.37;;;19.97;;
1378;SDS011;683;48.738;9.226;2023-01-25T14:17:01;26.63;;;19.70;;
1378;SDS011;683;48.738;9.226;2023-01-25T14:22:25;26.43;;;18.00;;
1378;SDS011;683;48.738;9.226;2023-01-25T14:25:00;28.00;;;19.50;;
1378;SDS011;683;48.738;9.226;2023-01-25T14:27:41;32.47;;;20.70;;
1378;SDS011;683;48.738;9.226;2023-01-25T14:30:14;31.70;;;20.23;;
1378;SDS011;683;48.738;9.226;2023-01-25T14:32:44;28.10;;;20.83;;
1378;SDS011;683;48.738;9.226;2023-01-25T14:35:30;29.90;;;20.07;;
1378;SDS011;683;48.738;9.226;2023-01-25T14:38:03;27.00;;;18.87;;
1378;SDS011;683;48.738;9.226;2023-01-25T14:40:46;28.30;;;20.00;;
1378;SDS011;683;48.738;9.226;2023-01-25T14:43:14;27.40;;;19.50;;
1378;SDS011;683;48.738;9.226;2023-01-25T14:45:43;28.17;;;19.27;;
1378;SDS011;683;48.738;9.226;2023-01-25T14:51:04;29.40;;;18.20;;
1378;SDS011;683;48.738;9.226;2023-01-25T14:53:39;25.57;;;19.17;;
1378;SDS011;683;48.738;9.226;2023-01-25T14:56:17;31.50;;;19.67;;
1378;SDS011;683;48.738;9.226;2023-01-25T14:58:56;27.93;;;18.90;;
1378;SDS011;683;48.738;9.226;2023-01-25T15:01:27;26.33;;;18.53;;
1378;SDS011;683;48.738;9.226;2023-01-25T15:04:08;35.67;;;19.93;;
1378;SDS011;683;48.738;9.226;2023-01-25T15:06:43;26.87;;;19.27;;
1378;SDS011;683;48.738;9.226;2023-01-25T15:15:15;30.37;;;18.43;;
1378;SDS011;683;48.738;9.226;2023-01-25T15:17:45;25.97;;;18.47;;
1378;SDS011;683;48.738;9.226;2023-01-25T15:20:31;32.93;;;19.87;;
1378;SDS011;683;48.738;9.226;2023-01-25T15:23:21;31.70;;;19.63;;
1378;SDS011;683;48.738;9.226;2023-01-25T15:29:10;30.87;;;19.27;;
1378;SDS011;683;48.738;9.226;2023-01-25T15:31:51;30.90;;;21.03;;
1378;SDS011;683;48.738;9.226;2023-01-25T15:34:22;34.43;;;20.93;;
1378;SDS011;683;48.738;9.226;2023-01-25T15:36:57;32.30;;;19.87;;
1378;SDS011;683;48.738;9.226;2023-01-25T15:39:25;28.37;;;18.47;;
1378;SDS011;683;48.738;9.226;2023-01-25T15:41:53;31.70;;;17.87;;
1378;SDS011;683;48.738;9.226;2023-01-25T15:44:21;29.87;;;17.67;;
1378;SDS011;683;48.738;9.226;2023-01-25T15:46:49;34.00;;;19.33;;
1378;SDS011;683;48.738;9.226;2023-01-25T15:49:20;31.97;;;20.43;;
1378;SDS011;683;48.738;9.226;2023-01-25T15:51:51;31.07;;;18.40;;
1378;SDS011;683;48.738;9.226;2023-01-25T15:54:18;30.67;;;19.50;;
1378;SDS011;683;48.738;9.226;2023-01-25T15:56:47;30.20;;;19.40;;
1378;SDS011;683;48.738;9.226;2023-01-25T15:59:21;30.27;;;20.13;;
1378;SDS011;683;48.738;9.226;2023-01-25T16:01:55;29.90;;;19.03;;
1378;SDS011;683;48.738;9.226;2023-01-25T16:04:33;27.50;;;18.13;;
1378;SDS011;683;48.738;9.226;2023-01-25T16:07:02;28.90;;;16.20;;
1378;SDS011;683;48.738;9.226;2023-01-25T16:09:29;23.40;;;16.70;;
1378;SDS011;683;48.738;9.226;2023-01-25T16:11:58;28.60;;;17.93;;
1378;SDS011;683;48.738;9.226;2023-01-25T16:14:28;27.40;;;15.33;;
1378;SDS011;683;48.738;9.226;2023-01-25T16:16:56;30.87;;;18.70;;
1378;SDS011;683;48.738;9.226;2023-01-25T16:19:30;23.60;;;14.67;;